Service Notice

This observation station is currently unavailable due to a loss of power in the area.

Work to restore the service will be undertaken as soon as it is safe to do so.

The Bureau's national resources allow our meteorologists to produce accurate and timely forecasts and warnings in areas without observations, including for the locations around this station site. Search for forcast by town, city, post code or lat/lon here or find the location on the MetEye map.

Latest Coastal Weather Observations for Mallacoota

IDV60701

Issued at 12:02 am EDT Tuesday 19 October 2021 (issued every 10 minutes, with the page automatically refreshed every 10 minutes)

About coastal observations | Map of coastal stations | Coastal observations for VIC | Marine services | Other Formats
Station Details ID: 084084 Name: MALLACOOTA Lat: -37.60 Lon: 149.73 Height: 22.0 m
Data from the previous 72 hours. | See also: Recent months at Mallacoota
Date/Time
EDT
Wind Sea
Height
m
Swell Vis
km
Cloud Weather Temp
°C
Press
MSL
hPa
Rain since
9am
mm
Dir  Spd
kts
Gust
kts
Height
m
Period
s
Dir
19/12:00am SW 11 18 - - - - - - Rain 11.8 1016.5 3.2
 
Date/Time
EDT
Wind Sea
Height
m
Swell Vis
km
Cloud Weather Temp
°C
Press
MSL
hPa
Rain since
9am
mm
Dir  Spd
kts
Gust
kts
Height
m
Period
s
Dir
18/11:30pm SSW 14 21 - - - - - - - 12.6 1016.4 2.8
18/11:00pm SW 7 10 - - - - - - - 13.3 1015.7 2.6
18/10:30pm SW 6 9 - - - - - - - 13.5 1015.2 2.2
18/10:00pm SW 5 9 - - - - - - - 13.7 1015.2 2.0
18/09:30pm S 2 8 - - - - - - - 14.1 1014.3 0.8
18/09:00pm CALM 0 0 - - - - - - - 14.1 1013.9 0.8
18/08:30pm N 4 6 - - - - - - - 14.1 1013.5 0.8
18/08:00pm N 5 9 - - - - - - - 14.0 1013.2 0.8
18/07:30pm N 7 9 - - - - - - - 14.0 1012.8 0.8
18/07:00pm NNE 5 8 - - - - - - - 14.3 1012.8 0.8
18/06:30pm S 1 5 - - - - - - - 14.2 1013.0 0.8
18/06:00pm S 6 9 - - - - - - Recent precip. 14.5 1013.5 0.8
18/05:30pm SSW 9 13 - - - - - - - 14.8 1013.8 0.6
18/05:00pm NNE 6 7 - - - - - - - 16.5 1012.6 0.6
18/04:34pm ESE 6 13 - - - - - - - 16.3 1012.4 0.6
18/04:30pm SE 8 15 - - - - - - - 16.0 1012.3 0.6
18/04:24pm S 9 15 - - - - - - - 16.2 1012.1 0.6
18/04:19pm SW 8 15 - - - - - - - 16.2 1012.5 0.4
18/04:00pm N 3 5 - - - - - - - 17.4 1011.6 0.0
18/03:59pm NNE 3 5 - - - - - - - 17.5 1011.7 0.0
18/03:30pm E 7 8 - - - - - - - 18.1 1011.5 0.0
18/03:00pm NE 5 7 - - - - - - - 18.3 1011.9 0.0
18/02:30pm ENE 5 9 - - - - - - - 18.7 1012.1 0.0
18/02:00pm NNE 5 7 - - - - - - - 18.0 1012.1 0.0
18/01:30pm ENE 6 10 - - - - - - - 17.5 1012.4 0.0
18/01:00pm NE 5 7 - - - - - - - 18.5 1012.7 0.0
18/12:30pm E 6 9 - - - - - - - 18.7 1012.9 0.0
18/12:00pm NW 5 9 - - - - - - - 21.1 1013.3 0.0
18/11:30am WSW 6 11 - - - - - - - 20.7 1013.5 0.0
18/11:00am SW 5 8 - - - - - - - 21.3 1013.7 0.0
18/10:30am NNW 6 9 - - - - - - - 20.0 1013.8 0.0
18/10:00am NNW 6 9 - - - - - - - 19.1 1013.9 0.0
18/09:30am NNW 7 9 - - - - - - - 17.0 1013.9 0.0
18/09:00am NW 8 10 - - - - - - - 15.6 1013.9 0.0
18/08:30am NNW 8 11 - - - - - - - 14.5 1013.9 0.0
18/08:00am NW 8 11 - - - - - - - 13.1 1014.0 0.0
18/07:30am NNW 7 10 - - - - - - - 11.6 1014.0 0.0
18/07:00am NW 8 11 - - - - - - - 9.8 1014.0 0.0
18/06:30am NW 6 9 - - - - - - - 8.6 1013.8 0.0
18/06:00am NW 6 7 - - - - - - - 8.3 1013.8 0.0
18/05:30am NW 5 7 - - - - - - - 7.4 1013.8 0.0
18/05:00am NW 3 5 - - - - - - - 7.0 1013.8 0.0
18/04:30am NW 5 5 - - - - - - - 7.6 1013.8 0.0
18/04:00am NW 6 7 - - - - - - - 8.2 1013.8 0.0
18/03:30am NW 6 7 - - - - - - - 8.4 1014.0 0.0
18/03:00am NW 6 7 - - - - - - - 8.5 1014.2 0.0
18/02:30am WNW 5 7 - - - - - - - 8.4 1014.5 0.0
18/02:00am WNW 5 6 - - - - - - - 8.8 1014.8 0.0
18/01:30am WNW 4 5 - - - - - - - 9.1 1015.0 0.0
18/01:00am NW 3 4 - - - - - - - 10.1 1015.0 0.0
18/12:30am NW 5 5 - - - - - - - 10.5 1015.2 0.0
18/12:00am NNW 4 5 - - - - - - - 10.9 1015.2 0.0
 
Date/Time
EDT
Wind Sea
Height
m
Swell Vis
km
Cloud Weather Temp
°C
Press
MSL
hPa
Rain since
9am
mm
Dir  Spd
kts
Gust
kts
Height
m
Period
s
Dir
17/11:30pm N 4 5 - - - - - - - 12.1 1015.3 0.0
17/11:00pm NNW 4 4 - - - - - - - 11.9 1015.4 0.0
17/10:30pm NW 4 6 - - - - - - - 11.9 1015.4 0.0
17/10:00pm NW 4 5 - - - - - - - 11.8 1015.6 0.0
17/09:30pm NW 3 4 - - - - - - - 11.5 1015.3 0.0
17/09:00pm NW 4 5 - - - - - - - 11.3 1015.3 0.0
17/08:30pm CALM 0 3 - - - - - - - 11.9 1015.1 0.0
17/08:00pm ESE 3 5 - - - - - - - 13.2 1014.7 0.0
17/07:30pm SE 3 6 - - - - - - - 13.0 1014.1 0.0
17/07:00pm S 6 8 - - - - - - - 13.3 1013.8 0.0
17/06:30pm S 6 9 - - - - - - - 13.7 1013.6 0.0
17/06:00pm S 9 12 - - - - - - - 14.3 1013.1 0.0
17/05:30pm S 11 14 - - - - - - - 14.3 1012.8 0.0
17/05:00pm S 11 17 - - - - - - - 14.3 1012.5 0.0
17/04:30pm S 12 17 - - - - - - - 14.6 1012.3 0.0
17/04:00pm S 12 17 - - - - - - - 14.8 1012.2 0.0
17/03:30pm S 13 20 - - - - - - - 15.2 1012.2 0.0
17/03:00pm S 13 19 - - - - - - - 15.6 1012.5 0.0
17/02:30pm SW 9 14 - - - - - - - 16.1 1012.8 0.0
17/02:00pm SW 9 16 - - - - - - - 15.7 1013.0 0.0
17/01:30pm WSW 7 10 - - - - - - - 15.8 1013.0 0.0
17/01:00pm WSW 8 13 - - - - - - - 16.1 1013.2 0.0
17/12:30pm WSW 9 15 - - - - - - - 16.0 1013.3 0.0
17/12:00pm SW 9 16 - - - - - - - 15.5 1013.4 0.0
17/11:30am SW 10 18 - - - - - - - 15.1 1013.4 0.0
17/11:00am WSW 9 14 - - - - - - - 15.3 1013.5 0.0
17/10:30am W 11 19 - - - - - - - 15.1 1013.5 0.0
17/10:00am WSW 10 18 - - - - - - - 14.0 1013.6 0.0
17/09:30am WSW 10 18 - - - - - - - 14.1 1013.3 0.0
17/09:00am W 8 14 - - - - - - - 13.2 1013.1 7.0
17/08:30am WSW 10 19 - - - - - - - 12.6 1012.8 7.0
17/08:00am W 9 16 - - - - - - - 12.1 1012.5 7.0
17/07:30am WSW 8 16 - - - - - - - 12.1 1012.2 7.0
17/07:00am WSW 10 19 - - - - - - - 11.5 1011.8 7.0
17/06:30am WSW 10 15 - - - - - - - 11.2 1011.3 7.0
17/06:00am WSW 8 15 - - - - - - - 11.0 1010.7 7.0
17/05:30am WSW 9 14 - - - - - - - 11.1 1010.2 7.0
17/05:00am WSW 9 19 - - - - - - - 11.4 1009.9 7.0
17/04:30am WSW 10 19 - - - - - - - 11.5 1009.5 7.0
17/04:00am WSW 9 20 - - - - - - - 11.4 1009.5 7.0
17/03:30am WSW 9 13 - - - - - - - 11.6 1009.2 7.0
17/03:00am W 11 20 - - - - - - - 11.5 1009.0 7.0
17/02:30am WSW 10 18 - - - - - - - 11.4 1008.7 7.0
17/02:00am WSW 11 23 - - - - - - - 11.8 1008.6 7.0
17/01:30am WSW 11 26 - - - - - - - 12.0 1008.5 7.0
17/01:00am WSW 12 19 - - - - - - - 12.1 1008.7 7.0
17/12:30am W 10 22 - - - - - - - 12.1 1008.7 7.0
17/12:17am WSW 15 26 - - - - - - - 12.4 1008.8 7.0
17/12:00am WSW 11 18 - - - - - - - 12.3 1008.7 7.0
 
Date/Time
EDT
Wind Sea
Height
m
Swell Vis
km
Cloud Weather Temp
°C
Press
MSL
hPa
Rain since
9am
mm
Dir  Spd
kts
Gust
kts
Height
m
Period
s
Dir
16/11:30pm WSW 13 25 - - - - - - - 12.6 1008.6 7.0
16/11:00pm WSW 12 24 - - - - - - - 12.7 1008.2 7.0
16/10:30pm SW 17 29 - - - - - - - 12.9 1008.1 7.0
16/10:00pm WSW 15 30 - - - - - - - 12.9 1007.9 7.0
16/09:50pm SW 15 27 - - - - - - - 13.0 1007.7 7.0
16/09:30pm WSW 13 21 - - - - - - - 12.8 1007.4 7.0
16/09:00pm WSW 13 25 - - - - - - - 13.0 1007.1 7.0
16/08:30pm SW 13 27 - - - - - - - 12.9 1006.7 7.0
16/08:02pm WSW 15 31 - - - - - - - 13.0 1006.1 7.0
16/08:00pm WSW 14 31 - - - - - - - 13.0 1006.1 7.0
16/07:30pm SW 12 20 - - - - - - - 12.9 1005.6 7.0
16/07:00pm SW 15 31 - - - - - - - 13.1 1004.9 7.0
16/06:37pm SW 15 26 - - - - - - - 13.4 1004.6 7.0
16/06:30pm SW 13 24 - - - - - - - 13.4 1004.5 7.0
16/06:03pm SW 15 25 - - - - - - - 13.8 1004.0 7.0
16/06:00pm SW 14 24 - - - - - - - 14.1 1003.9 7.0
16/05:30pm SW 15 27 - - - - - - - 14.1 1003.3 7.0
16/05:00pm SW 17 31 - - - - - - - 13.5 1003.2 7.0
16/04:30pm SW 15 26 - - - - - - - 13.3 1002.6 7.0
16/04:00pm WSW 15 28 - - - - - - - 12.7 1002.3 6.8
16/03:37pm SW 15 26 - - - - - - - 13.0 1001.9 6.8
16/03:30pm WSW 14 26 - - - - - - - 13.1 1001.8 6.0
16/03:00pm SW 15 26 - - - - - - - 13.9 1001.5 6.0
16/02:30pm SW 15 26 - - - - - - - 13.3 1001.5 6.0
16/02:05pm WSW 15 27 - - - - - - - 12.9 1001.2 6.0
16/02:00pm SW 15 24 - - - - - - - 12.9 1001.2 6.0
16/01:50pm SW 15 32 - - - - - - - 12.7 1001.0 5.8
16/01:30pm WSW 13 24 - - - - - - - 13.5 1000.7 5.4
16/01:00pm WSW 15 27 - - - - - - - 12.5 1000.3 5.4
16/12:30pm WSW 16 32 - - - - - - - 12.1 999.9 4.4
16/12:13pm WSW 15 28 - - - - - - - 12.4 999.6 2.6
16/12:00pm WSW 13 24 - - - - - - Rain 12.5 999.3 2.0
16/11:37am WSW 15 25 - - - - - - - 13.0 999.2 1.2
16/11:30am WSW 13 22 - - - - - - - 12.9 999.1 1.2
16/11:00am WSW 12 23 - - - - - - - 13.1 999.1 0.8
16/10:36am WSW 16 27 - - - - - - - 13.0 998.8 0.6
16/10:30am WSW 14 25 - - - - - - - 13.1 998.8 0.6
16/10:00am SW 12 21 - - - - - - - 13.7 998.4 0.4
16/09:30am WSW 12 20 - - - - - - - 13.3 998.1 0.4
16/09:00am WSW 11 21 - - - - - - - 13.1 997.8 1.4
16/08:30am WSW 10 18 - - - - - - - 12.8 997.5 1.4
16/08:06am SW 15 25 - - - - - - - 12.5 997.1 1.4
16/08:00am WSW 12 21 - - - - - - - 12.6 997.0 1.4
16/07:30am WSW 10 18 - - - - - - - 13.4 996.4 0.8
16/07:00am WSW 11 21 - - - - - - - 13.0 995.9 0.8
16/06:30am W 11 20 - - - - - - - 12.4 995.0 0.8
16/06:00am W 11 19 - - - - - - Recent precip. 11.8 994.9 0.8
16/05:30am W 8 14 - - - - - - - 11.0 994.9 0.8
16/05:00am NW 5 9 - - - - - - - 10.6 994.7 0.6
16/04:30am NW 5 8 - - - - - - - 10.4 994.9 0.2
16/04:00am NNW 5 7 - - - - - - - 10.3 995.1 0.2
16/03:30am NNW 4 5 - - - - - - - 10.3 995.2 0.0
16/03:00am NW 3 6 - - - - - - - 10.3 995.6 0.0
16/02:30am WNW 6 8 - - - - - - - 10.0 995.8 0.0
16/02:00am NW 5 7 - - - - - - - 9.7 995.9 0.0
16/01:30am NW 5 6 - - - - - - - 9.9 996.0 0.0
16/01:00am NW 5 7 - - - - - - - 10.0 996.3 0.0
16/12:30am NNW 6 8 - - - - - - - 10.4 996.7 0.0

Other formats

Comma delimited format used in spreadsheet applications
http://www.bom.gov.au/fwo/IDV60701/IDV60701.94935.axf

JavaScript Object Notation format (JSON) in row-major order
http://www.bom.gov.au/fwo/IDV60701/IDV60701.94935.json

Data quality

Most of these data are generated automatically and are frequently updated. Quality checks on data are not normally performed. It is possible for incorrect values to appear. Refer to information at About Latest Weather Observations and please check the disclaimer before using these data.